Time;durP1;ratioP1;P1;durP2;ratioP2;P2;SDS_P1;SDS_P2;PMS_P1;PMS_P2;Temp;Humidity;BMP_temperature;BMP_pressure;BME280_temperature;BME280_humidity;BME280_pressure;Samples;Min_cycle;Max_cycle;Signal;HPM_P1;HPM_P2
2023/12/24 00:01:43;;;;;;;0.13;0.10;;;8.90;82.70;;;;;;4953148;28;20031;-62
2023/12/24 00:04:09;;;;;;;0.17;0.10;;;8.80;82.70;;;;;;4951442;28;20450;-63
2023/12/24 00:06:34;;;;;;;0.20;0.05;;;8.80;82.70;;;;;;4950423;28;20039;-63
2023/12/24 00:09:00;;;;;;;0.00;0.00;;;8.80;82.70;;;;;;4954423;28;20058;-63
2023/12/24 00:11:26;;;;;;;0.10;0.10;;;8.80;82.60;;;;;;4951911;28;20549;-63
2023/12/24 00:13:51;;;;;;;0.30;0.10;;;8.80;82.60;;;;;;4950927;28;20396;-62
2023/12/24 00:16:17;;;;;;;0.10;0.10;;;8.90;82.60;;;;;;4951742;28;20038;-62
2023/12/24 00:18:42;;;;;;;0.20;0.20;;;8.80;82.70;;;;;;4950929;28;20058;-62
2023/12/24 00:21:08;;;;;;;1.00;0.10;;;8.80;82.70;;;;;;4952470;28;20046;-63
2023/12/24 00:23:33;;;;;;;0.10;0.10;;;8.80;82.80;;;;;;4951476;28;20032;-63
2023/12/24 00:25:59;;;;;;;0.50;0.10;;;8.80;82.90;;;;;;4950594;28;20115;-63
2023/12/24 00:28:24;;;;;;;0.35;0.20;;;8.80;82.80;;;;;;4950291;28;20035;-63
2023/12/24 00:30:50;;;;;;;0.47;0.10;;;8.80;82.90;;;;;;4951874;28;20031;-63
2023/12/24 00:33:16;;;;;;;0.00;0.00;;;8.80;83.10;;;;;;4949808;28;20043;-63
2023/12/24 00:35:41;;;;;;;0.30;0.10;;;8.80;83.10;;;;;;4950194;28;20109;-63
2023/12/24 00:38:07;;;;;;;0.10;0.00;;;8.80;83.10;;;;;;4950980;28;20047;-63
2023/12/24 00:40:33;;;;;;;0.28;0.20;;;8.80;83.10;;;;;;4949651;28;20094;-63
2023/12/24 00:42:59;;;;;;;0.10;0.10;;;8.80;83.20;;;;;;4950083;28;20034;-63
2023/12/24 00:45:24;;;;;;;0.10;0.10;;;8.80;83.10;;;;;;4946568;28;20036;-63
2023/12/24 00:47:50;;;;;;;0.10;0.00;;;8.80;83.10;;;;;;4951853;28;20019;-62
2023/12/24 00:50:16;;;;;;;0.98;0.10;;;8.80;83.10;;;;;;4950786;28;20031;-61
2023/12/24 00:52:41;;;;;;;4.13;0.35;;;8.80;83.10;;;;;;4951591;28;20047;-63
2023/12/24 00:55:07;;;;;;;0.10;0.10;;;8.80;83.10;;;;;;4950163;28;20035;-63
2023/12/24 00:57:33;;;;;;;0.20;0.10;;;8.80;83.20;;;;;;4950741;28;20045;-63
2023/12/24 00:59:58;;;;;;;0.38;0.20;;;8.80;83.20;;;;;;4950064;28;20031;-63
2023/12/24 01:02:24;;;;;;;0.63;0.10;;;8.80;83.20;;;;;;4954329;28;20267;-62
2023/12/24 01:04:50;;;;;;;0.30;0.15;;;8.80;83.10;;;;;;4949913;28;20031;-62
2023/12/24 01:07:16;;;;;;;0.20;0.10;;;8.80;83.10;;;;;;4946620;28;20047;-63
2023/12/24 01:09:42;;;;;;;0.20;0.10;;;8.80;82.90;;;;;;4950030;28;20046;-63
2023/12/24 01:12:07;;;;;;;0.10;0.10;;;8.80;83.10;;;;;;4945328;28;20039;-63
2023/12/24 01:14:35;;;;;;;0.10;0.10;;;8.80;83.00;;;;;;4949987;28;20050;-62
2023/12/24 01:17:00;;;;;;;0.45;0.10;;;8.80;82.90;;;;;;4949881;28;20031;-63
2023/12/24 01:19:27;;;;;;;1.55;0.15;;;8.80;82.90;;;;;;4952241;28;20041;-62
2023/12/24 01:21:54;;;;;;;0.38;0.20;;;8.80;82.90;;;;;;4945008;28;20062;-63
2023/12/24 01:24:20;;;;;;;0.57;0.10;;;8.80;82.90;;;;;;4950183;28;20102;-62
2023/12/24 01:26:46;;;;;;;0.20;0.10;;;8.80;82.90;;;;;;4949520;28;20039;-63
2023/12/24 01:29:11;;;;;;;0.22;0.10;;;8.80;82.90;;;;;;4950225;28;20122;-63
2023/12/24 01:31:38;;;;;;;0.45;0.10;;;8.80;82.90;;;;;;4951994;28;20070;-63
2023/12/24 01:34:03;;;;;;;0.68;0.20;;;8.80;82.90;;;;;;4950410;28;20027;-62
2023/12/24 01:36:29;;;;;;;0.10;0.00;;;8.80;82.60;;;;;;4949304;28;20427;-63
2023/12/24 01:38:54;;;;;;;0.30;0.00;;;8.80;82.90;;;;;;4949932;28;20355;-62
2023/12/24 01:41:20;;;;;;;0.00;0.00;;;8.80;82.90;;;;;;4949691;28;20522;-63
2023/12/24 01:43:46;;;;;;;0.65;0.10;;;8.80;82.90;;;;;;4948606;28;20063;-62
2023/12/24 01:46:20;;;;;;;0.10;0.10;;;8.80;82.80;;;;;;4950115;28;20454;-63
2023/12/24 01:48:48;;;;;;;0.10;0.10;;;8.80;82.60;;;;;;4951044;28;20325;-62
2023/12/24 01:51:15;;;;;;;0.10;0.10;;;8.80;82.70;;;;;;4949845;28;20058;-62
2023/12/24 01:53:42;;;;;;;0.10;0.10;;;8.80;82.90;;;;;;4952819;28;20039;-63
2023/12/24 01:56:07;;;;;;;0.17;0.10;;;8.80;82.90;;;;;;4949106;28;20375;-62
2023/12/24 01:58:34;;;;;;;0.10;0.10;;;8.80;82.90;;;;;;4950246;28;20066;-61
2023/12/24 02:01:00;;;;;;;0.43;0.20;;;8.80;82.90;;;;;;4949462;28;20091;-62
2023/12/24 02:03:26;;;;;;;0.17;0.15;;;8.80;82.90;;;;;;4954102;28;20571;-62
2023/12/24 02:05:52;;;;;;;0.38;0.10;;;8.80;83.00;;;;;;4950119;28;20131;-62
2023/12/24 02:08:21;;;;;;;0.20;0.20;;;8.80;82.90;;;;;;4950599;28;20062;-63
2023/12/24 02:10:48;;;;;;;0.85;0.20;;;8.80;83.00;;;;;;4951626;28;20062;-62
2023/12/24 02:13:15;;;;;;;0.47;0.10;;;8.80;82.80;;;;;;4950690;28;20047;-62
2023/12/24 02:15:42;;;;;;;0.68;0.20;;;8.80;82.90;;;;;;4949899;28;20027;-62
2023/12/24 02:18:08;;;;;;;0.30;0.10;;;8.80;82.80;;;;;;4949528;28;20474;-61
2023/12/24 02:20:34;;;;;;;0.10;0.10;;;8.80;82.70;;;;;;4946292;28;20107;-61
2023/12/24 02:22:59;;;;;;;0.20;0.15;;;8.80;82.80;;;;;;4948833;28;20038;-63
2023/12/24 02:25:26;;;;;;;0.10;0.10;;;8.80;82.70;;;;;;4952603;28;20574;-62
2023/12/24 02:28:18;;;;;;;0.15;0.15;;;8.80;82.70;;;;;;4949492;28;20407;-61
2023/12/24 02:31:01;;;;;;;0.85;0.20;;;8.80;82.30;;;;;;4950023;28;20035;-61
2023/12/24 02:33:33;;;;;;;0.28;0.20;;;8.80;82.10;;;;;;4952767;28;20043;-63
2023/12/24 02:36:01;;;;;;;0.82;0.30;;;8.80;82.40;;;;;;4953024;28;20078;-63
2023/12/24 02:38:26;;;;;;;0.47;0.20;;;8.80;82.40;;;;;;4951375;28;20035;-63
2023/12/24 02:40:52;;;;;;;0.13;0.13;;;8.80;82.40;;;;;;4951764;28;20543;-62
2023/12/24 02:43:17;;;;;;;0.50;0.20;;;8.80;82.30;;;;;;4950209;28;20031;-63
2023/12/24 02:45:44;;;;;;;0.17;0.10;;;8.80;82.40;;;;;;4952932;28;20074;-61
2023/12/24 02:48:10;;;;;;;0.10;0.10;;;8.90;82.40;;;;;;4954241;28;20058;-61
2023/12/24 02:50:36;;;;;;;0.60;0.20;;;8.80;82.10;;;;;;4954047;28;20380;-63
2023/12/24 02:53:01;;;;;;;0.10;0.10;;;8.80;82.20;;;;;;4952616;28;20097;-62
2023/12/24 02:55:27;;;;;;;0.32;0.20;;;8.80;82.20;;;;;;4952816;28;20050;-63
2023/12/24 02:57:53;;;;;;;0.40;0.20;;;8.80;82.10;;;;;;4952818;28;20550;-63
2023/12/24 03:00:18;;;;;;;0.15;0.15;;;8.80;83.00;;;;;;4949409;28;20094;-62
2023/12/24 03:02:44;;;;;;;0.17;0.10;;;8.80;82.20;;;;;;4952273;28;20031;-63
2023/12/24 03:05:10;;;;;;;0.85;0.13;;;8.90;82.10;;;;;;4952112;28;20079;-63
2023/12/24 03:07:35;;;;;;;1.27;0.32;;;8.80;82.00;;;;;;4952299;28;20411;-62
2023/12/24 03:10:01;;;;;;;0.73;0.15;;;8.80;82.00;;;;;;4951844;28;20543;-62
2023/12/24 03:12:27;;;;;;;0.20;0.13;;;8.80;82.10;;;;;;4954274;28;20464;-62
2023/12/24 03:14:52;;;;;;;1.58;0.30;;;8.80;82.00;;;;;;4952920;28;20078;-62
2023/12/24 03:17:18;;;;;;;0.15;0.10;;;8.80;82.20;;;;;;4952301;28;20499;-62
2023/12/24 03:19:43;;;;;;;0.38;0.20;;;8.80;82.20;;;;;;4951384;28;20450;-63
2023/12/24 03:22:09;;;;;;;0.35;0.20;;;8.80;82.20;;;;;;4953140;28;20502;-61
2023/12/24 03:24:35;;;;;;;0.50;0.25;;;8.70;81.90;;;;;;4951952;28;20035;-62
2023/12/24 03:27:00;;;;;;;1.55;0.20;;;8.80;82.20;;;;;;4951366;28;20507;-62
2023/12/24 03:29:26;;;;;;;0.47;0.20;;;8.70;82.20;;;;;;4952033;28;20042;-61
2023/12/24 03:31:51;;;;;;;0.35;0.10;;;8.80;82.30;;;;;;4951736;28;20044;-62
2023/12/24 03:34:17;;;;;;;1.05;0.20;;;8.70;82.20;;;;;;4951681;28;20436;-63
2023/12/24 03:36:42;;;;;;;0.20;0.20;;;8.80;82.30;;;;;;4952601;28;20031;-61
2023/12/24 03:39:09;;;;;;;0.20;0.13;;;8.70;82.10;;;;;;4951095;28;20540;-62
2023/12/24 03:41:35;;;;;;;0.10;0.10;;;8.70;82.20;;;;;;4951468;28;20089;-63
2023/12/24 03:44:01;;;;;;;0.57;0.20;;;8.70;82.40;;;;;;4952210;28;20051;-62
2023/12/24 03:46:27;;;;;;;0.10;0.10;;;8.70;82.30;;;;;;4952051;28;20031;-61
2023/12/24 03:48:53;;;;;;;0.10;0.10;;;8.70;82.30;;;;;;4951623;28;20118;-62
2023/12/24 03:51:19;;;;;;;0.43;0.17;;;8.70;82.30;;;;;;4951796;28;20043;-62
2023/12/24 03:53:45;;;;;;;0.28;0.20;;;8.70;82.30;;;;;;4950857;28;20174;-62
2023/12/24 03:56:11;;;;;;;0.30;0.10;;;8.70;82.40;;;;;;4952037;28;20043;-62
2023/12/24 03:58:37;;;;;;;0.55;0.32;;;8.70;82.30;;;;;;4951937;28;20090;-62
2023/12/24 04:01:09;;;;;;;0.10;0.10;;;8.70;82.40;;;;;;4951081;28;20031;-62
2023/12/24 04:03:35;;;;;;;0.15;0.08;;;8.80;82.20;;;;;;4952115;28;20035;-62
2023/12/24 04:06:08;;;;;;;0.32;0.10;;;8.70;82.20;;;;;;4952439;28;20403;-60
2023/12/24 04:08:33;;;;;;;0.35;0.10;;;8.70;82.30;;;;;;4952225;28;20507;-63
2023/12/24 04:10:59;;;;;;;0.20;0.10;;;8.70;82.50;;;;;;4951603;28;20046;-62
2023/12/24 04:13:24;;;;;;;0.10;0.10;;;8.70;82.50;;;;;;4951550;28;20411;-62
2023/12/24 04:15:50;;;;;;;0.13;0.13;;;8.70;82.60;;;;;;4951989;28;20122;-60
2023/12/24 04:18:16;;;;;;;0.10;0.10;;;8.80;82.60;;;;;;4951849;28;20047;-63
2023/12/24 04:20:41;;;;;;;0.10;0.10;;;8.70;82.40;;;;;;4951313;28;20039;-62
2023/12/24 04:23:07;;;;;;;0.15;0.10;;;8.70;82.60;;;;;;4952182;28;20043;-62
2023/12/24 04:25:32;;;;;;;0.15;0.10;;;8.80;82.60;;;;;;4951587;28;20035;-62
2023/12/24 04:27:58;;;;;;;0.30;0.10;;;8.70;82.60;;;;;;4950747;28;20406;-62
2023/12/24 04:30:23;;;;;;;0.30;0.20;;;8.80;82.70;;;;;;4950720;28;20419;-62
2023/12/24 04:32:49;;;;;;;0.47;0.20;;;8.80;82.80;;;;;;4950289;28;20247;-62
2023/12/24 04:35:14;;;;;;;0.10;0.10;;;8.70;82.70;;;;;;4951217;28;20039;-63
2023/12/24 04:37:40;;;;;;;0.30;0.20;;;8.80;82.90;;;;;;4950940;28;20042;-62
2023/12/24 04:40:06;;;;;;;0.20;0.20;;;8.70;82.80;;;;;;4955028;28;20035;-61
2023/12/24 04:42:32;;;;;;;0.50;0.25;;;8.70;82.80;;;;;;4946400;28;20592;-63
2023/12/24 04:44:58;;;;;;;0.20;0.20;;;8.70;82.90;;;;;;4950178;28;20320;-62
2023/12/24 04:47:23;;;;;;;1.05;0.20;;;8.70;82.90;;;;;;4952649;28;20122;-62
2023/12/24 04:49:49;;;;;;;0.30;0.20;;;8.70;82.90;;;;;;4949143;28;20043;-61
2023/12/24 04:52:14;;;;;;;0.80;0.20;;;8.70;82.90;;;;;;4947990;28;20525;-62
2023/12/24 04:54:40;;;;;;;0.10;0.10;;;8.70;82.90;;;;;;4951260;28;20036;-62
2023/12/24 04:57:05;;;;;;;0.10;0.10;;;8.70;82.80;;;;;;4950104;28;20090;-62
2023/12/24 04:59:31;;;;;;;0.28;0.20;;;8.70;82.90;;;;;;4950264;28;20027;-63
2023/12/24 05:01:58;;;;;;;0.20;0.20;;;8.70;82.90;;;;;;4950069;28;20034;-63
2023/12/24 05:04:26;;;;;;;1.25;0.30;;;8.70;83.00;;;;;;4950253;28;20051;-63
2023/12/24 05:06:51;;;;;;;0.20;0.20;;;8.70;83.10;;;;;;4950918;28;20042;-61
2023/12/24 05:09:17;;;;;;;0.43;0.20;;;8.70;83.10;;;;;;4950785;28;20479;-62
2023/12/24 05:11:43;;;;;;;0.95;0.38;;;8.70;83.10;;;;;;4948601;28;20070;-61
2023/12/24 05:14:08;;;;;;;0.30;0.20;;;8.70;83.10;;;;;;4952200;28;20032;-63
2023/12/24 05:16:34;;;;;;;0.20;0.20;;;8.70;83.10;;;;;;4949537;28;20344;-62
2023/12/24 05:18:59;;;;;;;0.60;0.50;;;8.70;83.10;;;;;;4948441;28;20126;-63
2023/12/24 05:21:29;;;;;;;0.63;0.57;;;8.70;83.10;;;;;;4949602;28;20388;-63
2023/12/24 05:23:55;;;;;;;0.32;0.20;;;8.80;83.10;;;;;;4948942;28;20023;-63
2023/12/24 05:26:20;;;;;;;0.30;0.30;;;8.70;83.10;;;;;;4953791;28;20038;-62
2023/12/24 05:28:46;;;;;;;0.30;0.20;;;8.90;83.30;;;;;;4950811;28;20739;-63
2023/12/24 05:31:11;;;;;;;0.35;0.20;;;8.80;83.10;;;;;;4954281;28;20125;-60
2023/12/24 05:33:37;;;;;;;0.47;0.20;;;8.80;83.00;;;;;;4953849;28;20039;-63
2023/12/24 05:36:03;;;;;;;1.85;0.40;;;8.80;83.00;;;;;;4951946;28;20043;-62
2023/12/24 05:38:29;;;;;;;0.70;0.28;;;8.90;83.10;;;;;;4949117;28;20043;-61
2023/12/24 05:40:55;;;;;;;0.85;0.10;;;8.80;82.90;;;;;;4949776;28;20450;-63
2023/12/24 05:43:20;;;;;;;0.13;0.10;;;8.90;83.10;;;;;;4947278;28;20070;-62
2023/12/24 05:45:46;;;;;;;0.30;0.30;;;8.90;83.00;;;;;;4953415;28;20050;-62
2023/12/24 05:48:11;;;;;;;0.20;0.17;;;8.90;82.80;;;;;;4950347;28;20046;-62
2023/12/24 05:50:39;;;;;;;0.25;0.25;;;8.90;83.00;;;;;;4952990;28;22062;-62
2023/12/24 05:53:05;;;;;;;0.20;0.20;;;8.90;83.00;;;;;;4951705;28;20055;-63
2023/12/24 05:55:30;;;;;;;1.95;0.22;;;8.90;83.10;;;;;;4955430;28;20065;-62
2023/12/24 05:57:56;;;;;;;0.40;0.22;;;8.90;83.10;;;;;;4953452;28;20035;-61
2023/12/24 06:00:22;;;;;;;0.93;0.20;;;8.90;83.00;;;;;;4951504;28;20058;-62
2023/12/24 06:02:47;;;;;;;0.20;0.20;;;8.90;82.90;;;;;;4949310;28;20053;-62
2023/12/24 06:05:13;;;;;;;0.40;0.30;;;8.90;82.70;;;;;;4951696;28;20518;-63
2023/12/24 06:07:38;;;;;;;0.10;0.10;;;9.00;82.80;;;;;;4952481;28;20314;-63
2023/12/24 06:10:05;;;;;;;0.30;0.30;;;9.00;82.80;;;;;;4952227;28;20055;-63
2023/12/24 06:12:30;;;;;;;0.20;0.20;;;9.00;82.80;;;;;;4953654;28;20035;-62
2023/12/24 06:14:57;;;;;;;0.20;0.20;;;9.00;82.70;;;;;;4950220;28;22227;-62
2023/12/24 06:17:22;;;;;;;0.57;0.30;;;9.00;82.70;;;;;;4953168;28;20530;-63
2023/12/24 06:19:48;;;;;;;1.02;0.30;;;9.00;82.60;;;;;;4950864;28;20028;-62
2023/12/24 06:22:14;;;;;;;0.22;0.17;;;9.00;82.70;;;;;;4952987;28;20188;-61
2023/12/24 06:24:39;;;;;;;0.10;0.10;;;9.00;82.70;;;;;;4953400;28;20572;-61
2023/12/24 06:27:05;;;;;;;0.35;0.25;;;9.00;82.70;;;;;;4956133;28;20043;-61
2023/12/24 06:29:30;;;;;;;0.60;0.20;;;9.00;82.40;;;;;;4953146;28;20039;-62
2023/12/24 06:31:56;;;;;;;0.40;0.30;;;9.00;83.30;;;;;;4953540;28;20043;-63
2023/12/24 06:34:22;;;;;;;0.95;0.38;;;9.00;82.50;;;;;;4953858;28;20031;-62
2023/12/24 06:36:47;;;;;;;0.40;0.40;;;9.00;82.40;;;;;;4953366;28;20090;-63
2023/12/24 06:39:13;;;;;;;1.73;0.30;;;9.10;82.50;;;;;;4953779;28;20039;-63
2023/12/24 06:41:38;;;;;;;0.43;0.43;;;9.10;82.40;;;;;;4953750;28;20023;-62
2023/12/24 06:44:04;;;;;;;0.30;0.30;;;9.10;82.20;;;;;;4953918;28;20034;-62
2023/12/24 06:46:29;;;;;;;0.30;0.30;;;9.10;82.30;;;;;;4952933;28;20032;-62
2023/12/24 06:48:55;;;;;;;1.50;0.20;;;9.10;82.10;;;;;;4952208;28;20038;-62
2023/12/24 06:51:21;;;;;;;1.20;0.20;;;9.10;82.00;;;;;;4955700;28;20036;-63
2023/12/24 06:53:46;;;;;;;0.20;0.20;;;9.10;82.20;;;;;;4953478;28;20093;-63
2023/12/24 06:56:12;;;;;;;0.10;0.10;;;9.10;82.00;;;;;;4952194;28;20070;-63
2023/12/24 06:58:37;;;;;;;1.73;0.40;;;9.10;81.90;;;;;;4950878;28;20039;-63
2023/12/24 07:01:03;;;;;;;0.10;0.10;;;9.10;82.00;;;;;;4955776;28;20164;-61
2023/12/24 07:03:28;;;;;;;0.10;0.10;;;9.10;81.90;;;;;;4953662;28;20410;-63
2023/12/24 07:05:54;;;;;;;0.10;0.10;;;9.00;81.90;;;;;;4952744;28;20074;-62
2023/12/24 07:08:22;;;;;;;0.10;0.10;;;9.00;81.80;;;;;;4952878;28;20577;-62
2023/12/24 07:10:47;;;;;;;0.52;0.10;;;9.00;81.90;;;;;;4951631;28;22416;-62
2023/12/24 07:13:13;;;;;;;0.38;0.15;;;9.00;81.90;;;;;;4950188;28;20054;-61
2023/12/24 07:15:40;;;;;;;0.20;0.20;;;9.00;81.90;;;;;;4951638;28;20035;-62
2023/12/24 07:18:06;;;;;;;0.75;0.28;;;9.00;81.90;;;;;;4951724;28;20038;-61
2023/12/24 07:20:31;;;;;;;0.17;0.10;;;9.00;81.90;;;;;;4950052;28;20039;-62
2023/12/24 07:22:57;;;;;;;0.20;0.20;;;8.90;81.90;;;;;;4952936;28;20032;-63
2023/12/24 07:25:23;;;;;;;0.20;0.20;;;9.00;81.90;;;;;;4953687;28;20053;-62
2023/12/24 07:27:49;;;;;;;0.57;0.30;;;8.90;81.90;;;;;;4951354;28;20032;-63
2023/12/24 07:30:14;;;;;;;0.30;0.30;;;8.90;81.90;;;;;;4952277;28;20380;-63
2023/12/24 07:32:46;;;;;;;0.28;0.20;;;8.90;81.90;;;;;;4953922;28;20035;-63
2023/12/24 07:35:12;;;;;;;0.40;0.32;;;8.90;81.90;;;;;;4948702;28;20039;-63
2023/12/24 07:37:38;;;;;;;0.40;0.30;;;8.90;81.90;;;;;;4951333;28;20090;-63
2023/12/24 07:40:08;;;;;;;0.57;0.30;;;8.90;82.00;;;;;;4945867;28;20055;-63
2023/12/24 07:42:34;;;;;;;0.20;0.20;;;8.90;81.80;;;;;;4952099;28;20546;-63
2023/12/24 07:45:00;;;;;;;0.15;0.10;;;8.80;82.00;;;;;;4952237;28;20492;-63
2023/12/24 07:47:25;;;;;;;0.43;0.20;;;8.90;82.00;;;;;;4955244;28;20070;-62
2023/12/24 07:49:51;;;;;;;0.20;0.20;;;8.90;82.00;;;;;;4949637;28;20046;-63
2023/12/24 07:52:16;;;;;;;0.30;0.30;;;8.90;82.10;;;;;;4948833;28;20428;-61
2023/12/24 07:54:42;;;;;;;0.45;0.20;;;8.80;82.10;;;;;;4950747;28;20062;-64
2023/12/24 07:57:07;;;;;;;0.20;0.20;;;8.90;82.20;;;;;;4954647;28;20041;-63
2023/12/24 07:59:33;;;;;;;0.30;0.30;;;8.90;82.20;;;;;;4929762;28;20047;-64
2023/12/24 08:01:58;;;;;;;0.40;0.30;;;8.90;82.20;;;;;;4940818;28;20443;-63
2023/12/24 08:04:24;;;;;;;0.22;0.17;;;8.90;82.10;;;;;;4940468;28;20465;-63
2023/12/24 08:06:51;;;;;;;0.80;0.30;;;8.90;82.20;;;;;;4941441;28;20035;-63
2023/12/24 08:09:16;;;;;;;0.57;0.30;;;8.90;82.20;;;;;;4942827;28;20503;-63
2023/12/24 08:11:42;;;;;;;0.20;0.20;;;8.90;82.30;;;;;;4934470;28;20027;-63
2023/12/24 08:14:07;;;;;;;0.20;0.20;;;8.90;82.30;;;;;;4944125;28;20043;-64
2023/12/24 08:16:35;;;;;;;0.20;0.20;;;8.90;82.30;;;;;;4945536;28;20280;-62
2023/12/24 08:19:01;;;;;;;0.98;0.22;;;9.00;82.40;;;;;;4943770;28;20090;-63
2023/12/24 08:21:26;;;;;;;1.88;0.30;;;9.00;82.40;;;;;;4950691;28;20027;-63
2023/12/24 08:23:52;;;;;;;0.45;0.20;;;9.00;82.30;;;;;;4945484;28;20111;-63
2023/12/24 08:26:18;;;;;;;0.60;0.30;;;9.00;82.20;;;;;;4946942;28;20046;-63
2023/12/24 08:28:44;;;;;;;0.63;0.45;;;9.00;82.20;;;;;;4946128;28;20585;-64
2023/12/24 08:31:10;;;;;;;2.53;0.30;;;9.00;82.30;;;;;;4946492;28;20036;-63
2023/12/24 08:33:36;;;;;;;0.10;0.10;;;9.10;82.40;;;;;;4935450;28;20059;-63
2023/12/24 08:36:03;;;;;;;0.65;0.20;;;9.00;82.40;;;;;;4949018;28;20042;-63
2023/12/24 08:38:28;;;;;;;0.20;0.20;;;9.10;82.30;;;;;;4948590;28;20126;-62
2023/12/24 08:40:54;;;;;;;0.43;0.43;;;9.10;82.30;;;;;;4934002;28;20529;-63
2023/12/24 08:43:19;;;;;;;0.35;0.35;;;9.10;82.40;;;;;;4938438;28;21197;-65
2023/12/24 08:45:45;;;;;;;0.50;0.30;;;9.20;82.50;;;;;;4941228;28;20038;-64
2023/12/24 08:48:10;;;;;;;0.35;0.20;;;9.20;82.40;;;;;;4936125;28;20086;-63
2023/12/24 08:50:36;;;;;;;0.52;0.30;;;9.20;82.40;;;;;;4943922;28;20031;-64
2023/12/24 08:53:02;;;;;;;0.30;0.22;;;9.20;82.40;;;;;;4945980;28;20431;-64
2023/12/24 08:55:27;;;;;;;0.32;0.20;;;9.20;82.40;;;;;;4947305;28;20031;-64
2023/12/24 08:57:53;;;;;;;0.55;0.45;;;9.30;82.50;;;;;;4944730;28;20053;-64
2023/12/24 09:00:19;;;;;;;1.40;0.22;;;9.30;82.40;;;;;;4945089;28;20039;-64
2023/12/24 09:02:44;;;;;;;0.22;0.22;;;9.30;82.40;;;;;;4945972;28;20065;-63
2023/12/24 09:05:10;;;;;;;0.85;0.25;;;9.30;82.40;;;;;;4943790;28;20039;-64
2023/12/24 09:07:36;;;;;;;1.05;0.20;;;9.30;82.40;;;;;;4945230;28;20047;-61
2023/12/24 09:10:03;;;;;;;0.85;0.32;;;9.30;82.20;;;;;;4942017;28;20401;-64
2023/12/24 09:12:29;;;;;;;0.50;0.30;;;9.40;82.40;;;;;;4943241;28;20067;-63
2023/12/24 09:14:55;;;;;;;0.40;0.30;;;9.40;82.30;;;;;;4939675;28;21173;-63
2023/12/24 09:17:21;;;;;;;0.45;0.30;;;9.50;82.40;;;;;;4934370;28;21267;-64
2023/12/24 09:19:46;;;;;;;0.63;0.32;;;9.50;82.40;;;;;;4936736;28;20731;-64
2023/12/24 09:22:12;;;;;;;0.75;0.40;;;9.50;82.20;;;;;;4940026;28;20462;-62
2023/12/24 09:24:37;;;;;;;0.20;0.20;;;9.50;82.00;;;;;;4945438;28;20499;-64
2023/12/24 09:27:03;;;;;;;0.38;0.20;;;9.60;83.10;;;;;;4943627;28;20063;-64
2023/12/24 09:29:29;;;;;;;0.55;0.30;;;9.60;82.00;;;;;;4947759;28;20121;-63
2023/12/24 09:31:54;;;;;;;1.05;0.60;;;9.60;82.00;;;;;;4937474;28;20145;-64
2023/12/24 09:34:20;;;;;;;0.55;0.40;;;9.60;82.00;;;;;;4937795;28;20028;-64
2023/12/24 09:36:46;;;;;;;0.40;0.30;;;9.60;81.70;;;;;;4945191;28;20073;-63
2023/12/24 09:39:11;;;;;;;0.47;0.32;;;9.70;81.70;;;;;;4941470;28;20451;-63
2023/12/24 09:41:37;;;;;;;0.95;0.80;;;9.70;81.70;;;;;;4944781;28;20764;-64
2023/12/24 09:44:04;;;;;;;0.35;0.30;;;9.70;81.80;;;;;;4942248;28;20123;-63
2023/12/24 09:46:29;;;;;;;0.22;0.22;;;9.70;81.70;;;;;;4940329;28;20106;-63
2023/12/24 09:48:55;;;;;;;0.85;0.43;;;9.70;81.70;;;;;;4946439;28;20035;-63
2023/12/24 09:51:23;;;;;;;0.30;0.30;;;9.70;81.70;;;;;;4947760;28;20032;-63
2023/12/24 09:53:49;;;;;;;1.05;0.57;;;9.70;81.50;;;;;;4947259;28;20172;-61
2023/12/24 09:56:15;;;;;;;0.60;0.32;;;9.80;81.70;;;;;;4947024;28;20060;-63
2023/12/24 09:58:41;;;;;;;0.50;0.40;;;9.70;81.70;;;;;;4945171;28;20031;-63
2023/12/24 10:01:07;;;;;;;0.60;0.50;;;9.80;81.80;;;;;;4943770;28;20043;-62
2023/12/24 10:03:33;;;;;;;0.73;0.30;;;9.70;82.00;;;;;;4946500;28;20043;-63
2023/12/24 10:06:09;;;;;;;0.55;0.40;;;9.80;82.00;;;;;;4946039;28;20042;-63
2023/12/24 10:08:35;;;;;;;0.40;0.40;;;9.80;81.90;;;;;;4947864;28;20130;-63
2023/12/24 10:11:20;;;;;;;0.65;0.40;;;9.80;81.90;;;;;;4948664;28;20765;-63
2023/12/24 10:13:47;;;;;;;0.50;0.47;;;9.80;81.90;;;;;;4959317;28;20043;-61
2023/12/24 10:16:13;;;;;;;0.65;0.30;;;9.80;82.00;;;;;;4946099;28;20451;-63
2023/12/24 10:18:49;;;;;;;0.85;0.50;;;9.80;81.90;;;;;;4948746;28;20039;-63
2023/12/24 10:21:15;;;;;;;0.30;0.30;;;9.90;82.00;;;;;;4947505;28;20043;-63
2023/12/24 10:23:41;;;;;;;1.10;0.38;;;9.80;81.90;;;;;;4948896;28;20407;-63
2023/12/24 10:26:08;;;;;;;0.40;0.35;;;9.90;82.00;;;;;;4948456;28;20039;-61
2023/12/24 10:28:53;;;;;;;0.10;0.10;;;9.80;81.90;;;;;;4949781;28;20123;-62
2023/12/24 10:31:19;;;;;;;0.47;0.40;;;9.90;81.80;;;;;;4947684;28;20522;-63
2023/12/24 10:33:45;;;;;;;0.55;0.20;;;9.90;81.90;;;;;;4949333;28;20046;-62
2023/12/24 10:36:10;;;;;;;0.30;0.30;;;9.90;81.90;;;;;;4946159;28;20037;-63
2023/12/24 10:38:37;;;;;;;0.98;0.80;;;9.90;81.90;;;;;;4950177;28;20031;-63
2023/12/24 10:41:03;;;;;;;0.77;0.70;;;9.90;81.70;;;;;;4949230;28;20118;-63
2023/12/24 10:43:29;;;;;;;0.85;0.40;;;9.90;81.80;;;;;;4949696;28;20103;-61
2023/12/24 10:45:58;;;;;;;0.30;0.30;;;10.00;81.70;;;;;;4944845;28;20118;-63
2023/12/24 10:48:24;;;;;;;0.25;0.20;;;10.00;81.70;;;;;;4948823;28;20131;-63
2023/12/24 10:50:52;;;;;;;1.85;0.20;;;10.00;81.50;;;;;;4949855;28;20114;-63
2023/12/24 10:53:18;;;;;;;1.00;0.28;;;10.00;81.30;;;;;;4951293;28;20043;-63
2023/12/24 10:56:06;;;;;;;0.40;0.20;;;10.00;81.30;;;;;;4948055;28;20045;-63
2023/12/24 10:59:00;;;;;;;0.47;0.30;;;10.00;81.10;;;;;;4950970;28;20085;-63
2023/12/24 11:01:27;;;;;;;0.65;0.65;;;10.00;81.00;;;;;;4949009;28;20387;-63
2023/12/24 11:03:53;;;;;;;3.47;0.60;;;10.00;81.30;;;;;;4951907;28;20130;-62
2023/12/24 11:06:37;;;;;;;0.88;0.88;;;10.10;81.30;;;;;;4952988;28;20089;-61
2023/12/24 11:09:14;;;;;;;1.45;0.80;;;10.10;80.80;;;;;;4950717;28;20035;-63
2023/12/24 11:11:56;;;;;;;1.15;0.77;;;10.10;81.00;;;;;;4950342;28;20039;-61
2023/12/24 11:14:38;;;;;;;1.23;1.10;;;10.10;80.90;;;;;;4948684;28;20031;-61
2023/12/24 11:17:05;;;;;;;0.80;0.77;;;10.10;80.90;;;;;;4948840;28;20126;-63
2023/12/24 11:19:35;;;;;;;0.70;0.50;;;10.10;80.80;;;;;;4952976;28;20036;-63
2023/12/24 11:22:11;;;;;;;0.30;0.30;;;10.10;81.00;;;;;;4951318;28;20482;-61
2023/12/24 11:24:43;;;;;;;0.80;0.40;;;10.10;80.70;;;;;;4952836;28;20477;-63
2023/12/24 11:27:10;;;;;;;1.42;0.30;;;10.20;81.00;;;;;;4952525;28;20035;-63
2023/12/24 11:29:48;;;;;;;0.30;0.30;;;10.10;81.00;;;;;;4952326;28;20051;-63
2023/12/24 11:32:26;;;;;;;0.38;0.30;;;10.20;80.60;;;;;;4952402;28;20043;-64
2023/12/24 11:34:52;;;;;;;0.30;0.30;;;10.10;80.60;;;;;;4948792;28;20515;-63
2023/12/24 11:37:27;;;;;;;0.60;0.30;;;10.10;80.70;;;;;;4952142;28;20089;-63
2023/12/24 11:40:08;;;;;;;0.43;0.40;;;10.10;80.50;;;;;;4952429;28;20032;-63
2023/12/24 11:42:44;;;;;;;0.40;0.35;;;10.10;80.30;;;;;;4952426;28;20054;-64
2023/12/24 11:45:25;;;;;;;0.40;0.40;;;10.10;80.40;;;;;;4951896;28;20073;-63
2023/12/24 11:47:51;;;;;;;0.25;0.20;;;10.00;80.30;;;;;;4952767;28;20054;-63
2023/12/24 11:50:18;;;;;;;1.42;0.20;;;10.10;80.60;;;;;;4952058;28;20411;-63
2023/12/24 11:52:44;;;;;;;0.40;0.40;;;10.00;80.60;;;;;;4951501;28;20038;-61
2023/12/24 11:55:14;;;;;;;0.63;0.20;;;10.00;80.60;;;;;;4950309;28;20531;-64
2023/12/24 11:57:41;;;;;;;0.20;0.20;;;10.00;80.60;;;;;;4952095;28;20039;-64
2023/12/24 12:00:27;;;;;;;0.35;0.30;;;10.10;80.70;;;;;;4947933;28;20031;-64
2023/12/24 12:02:58;;;;;;;1.23;0.20;;;10.00;80.60;;;;;;4946093;28;20039;-63
2023/12/24 12:05:24;;;;;;;0.63;0.20;;;10.10;80.70;;;;;;4949088;28;20062;-64
2023/12/24 12:07:51;;;;;;;0.38;0.30;;;10.10;80.60;;;;;;4950877;28;20059;-62
2023/12/24 12:10:17;;;;;;;0.43;0.30;;;10.10;80.50;;;;;;4948128;28;20523;-63
2023/12/24 12:12:43;;;;;;;0.30;0.28;;;10.10;80.60;;;;;;4950739;28;20098;-63
2023/12/24 12:15:10;;;;;;;0.40;0.30;;;10.20;80.70;;;;;;4950628;28;20028;-63
2023/12/24 12:17:35;;;;;;;1.30;0.40;;;10.20;80.70;;;;;;4951237;28;20411;-63
2023/12/24 12:20:01;;;;;;;1.92;0.60;;;10.20;80.60;;;;;;4947310;28;20519;-64
2023/12/24 12:22:27;;;;;;;0.60;0.47;;;10.30;80.80;;;;;;4949349;28;20455;-63
2023/12/24 12:24:52;;;;;;;1.00;0.40;;;10.30;80.60;;;;;;4952453;28;20027;-61
2023/12/24 12:27:18;;;;;;;0.50;0.20;;;10.30;80.60;;;;;;4950127;28;20065;-62
2023/12/24 12:29:44;;;;;;;1.27;0.32;;;10.30;80.50;;;;;;4953863;28;20035;-64
2023/12/24 12:32:09;;;;;;;1.02;0.22;;;10.40;80.60;;;;;;4948577;28;20066;-61
2023/12/24 12:34:35;;;;;;;0.40;0.40;;;10.40;80.50;;;;;;4948953;28;20058;-64
2023/12/24 12:37:01;;;;;;;0.90;0.30;;;10.40;80.60;;;;;;4950256;28;20024;-63
2023/12/24 12:39:26;;;;;;;0.57;0.30;;;10.50;81.70;;;;;;4947124;28;20031;-63
2023/12/24 12:41:52;;;;;;;0.20;0.20;;;10.50;81.10;;;;;;4950446;28;20455;-62
2023/12/24 12:44:17;;;;;;;0.30;0.30;;;10.50;81.30;;;;;;4951634;28;20027;-64
2023/12/24 12:46:43;;;;;;;0.47;0.38;;;10.50;81.50;;;;;;4950406;28;20031;-64
2023/12/24 12:49:10;;;;;;;0.90;0.50;;;10.50;81.70;;;;;;4950090;28;20082;-63
2023/12/24 12:51:37;;;;;;;0.32;0.32;;;10.50;82.00;;;;;;4950915;28;20102;-63
2023/12/24 12:54:06;;;;;;;0.20;0.20;;;10.50;82.10;;;;;;4951258;28;20050;-63